sensor_id;sensor_type;location;lat;lon;timestamp;pressure;altitude;pressure_sealevel;temperature
77385;BMP280;66444;49.680;18.538;2023-03-01T00:03:19;98615.2572163995;;;-1.9738217496313155
77385;BMP280;66444;49.680;18.538;2023-03-01T00:08:21;98625.42265590302;;;-2.0758517321199177
77385;BMP280;66444;49.680;18.538;2023-03-01T00:13:23;98625.51159598348;;;-2.142172469291836
77385;BMP280;66444;49.680;18.538;2023-03-01T00:18:25;98626.03900752365;;;-2.23910454697907
77385;BMP280;66444;49.680;18.538;2023-03-01T00:23:27;98622.85866192747;;;-2.2595115679316224
77385;BMP280;66444;49.680;18.538;2023-03-01T00:28:29;98615.61764856928;;;-2.23910454697907
77385;BMP280;66444;49.680;18.538;2023-03-01T00:33:30;98624.0085282927;;;-2.2186976191587746
77385;BMP280;66444;49.680;18.538;2023-03-01T00:38:34;98614.38179323534;;;-2.213595901755616
77385;BMP280;66444;49.680;18.538;2023-03-01T00:43:37;98611.68793551919;;;-2.147274105204269
77385;BMP280;66444;49.680;18.538;2023-03-01T00:48:39;98610.67194649036;;;-2.137070839200169
77385;BMP280;66444;49.680;18.538;2023-03-01T00:53:41;98608.6397341796;;;-2.116664377041161
77385;BMP280;66444;49.680;18.538;2023-03-01T00:58:44;98604.57437248561;;;-2.0758517321199177
77385;BMP280;66444;49.680;18.538;2023-03-01T01:03:46;98597.32900403581;;;-2.0554455493576826
77385;BMP280;66444;49.680;18.538;2023-03-01T01:08:51;98595.29537062832;;;-2.0350394597277046
77385;BMP280;66444;49.680;18.538;2023-03-01T01:13:55;98590.52752128428;;;-2.065648629097268
77385;BMP280;66444;49.680;18.538;2023-03-01T01:18:58;98601.39533365513;;;-2.0962580080144106
77385;BMP280;66444;49.680;18.538;2023-03-01T01:24:02;98589.38228660802;;;-2.106461180886254
77385;BMP280;66444;49.680;18.538;2023-03-01T01:29:05;98594.02105200205;;;-2.1268675964791326
77385;BMP280;66444;49.680;18.538;2023-03-01T01:34:08;98586.64713450208;;;-2.1574773944914343
77385;BMP280;66444;49.680;18.538;2023-03-01T01:39:15;98583.46843732336;;;-2.1778840429149566
77385;BMP280;66444;49.680;18.538;2023-03-01T01:44:18;98582.7643421991;;;-2.2493080458138137
77385;BMP280;66444;49.680;18.538;2023-03-01T01:49:25;98582.3219444622;;;-2.2186976191587746
77385;BMP280;66444;49.680;18.538;2023-03-01T01:54:36;98582.45216779654;;;-2.1676807070616633
77385;BMP280;66444;49.680;18.538;2023-03-01T01:59:43;98578.12721433614;;;-2.22890107142739
77385;BMP280;66444;49.680;18.538;2023-03-01T02:04:52;98574.3751262908;;;-2.269715113332495
77385;BMP280;66444;49.680;18.538;2023-03-01T02:10:09;98579.5854641892;;;-2.269715113332495
77385;BMP280;66444;49.680;18.538;2023-03-01T02:15:11;98577.55382337245;;;-2.2493080458138137
77385;BMP280;66444;49.680;18.538;2023-03-01T02:20:15;98579.89443137469;;;-2.3513443147297948
77385;BMP280;66444;49.680;18.538;2023-03-01T02:25:27;98577.15587951992;;;-2.402363322302699
77385;BMP280;66444;49.680;18.538;2023-03-01T02:30:35;98564.5233240958;;;-2.550321735907346
77385;BMP280;66444;49.680;18.538;2023-03-01T02:35:37;98565.34093763387;;;-2.7288987543433905
77385;BMP280;66444;49.680;18.538;2023-03-01T02:40:40;98558.98114176847;;;-2.7697173597291114
77385;BMP280;66444;49.680;18.538;2023-03-01T02:45:47;98552.18529996875;;;-2.7799220692832023
77385;BMP280;66444;49.680;18.538;2023-03-01T02:50:54;98542.48823346365;;;-2.708489591348916
77385;BMP280;66444;49.680;18.538;2023-03-01T02:56:05;98524.97610147676;;;-2.637058254284784
77385;BMP280;66444;49.680;18.538;2023-03-01T03:01:08;98512.09168407404;;;-2.5860365691594778
77385;BMP280;66444;49.680;18.538;2023-03-01T03:06:11;98506.0898296738;;;-2.5911387114785613
77385;BMP280;66444;49.680;18.538;2023-03-01T03:11:13;98512.2238819333;;;-2.5350154661107807
77385;BMP280;66444;49.680;18.538;2023-03-01T03:16:15;98510.98753423845;;;-2.5095051328651605
77385;BMP280;66444;49.680;18.538;2023-03-01T03:21:17;98514.8278550871;;;-2.5350154661107807
77385;BMP280;66444;49.680;18.538;2023-03-01T03:26:19;98514.69543812389;;;-2.5860365691594778
77385;BMP280;66444;49.680;18.538;2023-03-01T03:31:21;98514.69543812389;;;-2.5860365691594778
77385;BMP280;66444;49.680;18.538;2023-03-01T03:36:24;98511.9584033584;;;-2.637058254284784
77385;BMP280;66444;49.680;18.538;2023-03-01T03:41:26;98514.42735588629;;;-2.6880805214866994
77385;BMP280;66444;49.680;18.538;2023-03-01T03:46:29;98515.74413415;;;-2.7799220692832023
77385;BMP280;66444;49.680;18.538;2023-03-01T03:51:31;98524.78526258313;;;-2.8054339450318366
77385;BMP280;66444;49.680;18.538;2023-03-01T03:56:33;98540.62052169605;;;-2.8207411403302105
77385;BMP280;66444;49.680;18.538;2023-03-01T04:01:35;98540.04382985324;;;-2.8411508155521004
77385;BMP280;66444;49.680;18.538;2023-03-01T04:06:37;98527.90327031723;;;-2.902380400011316
77385;BMP280;66444;49.680;18.538;2023-03-01T04:11:39;98537.59302759588;;;-2.9738159745931627
77385;BMP280;66444;49.680;18.538;2023-03-01T04:16:41;98532.10113064483;;;-3.075868774484843
77385;BMP280;66444;49.680;18.538;2023-03-01T04:21:43;98533.83112717839;;;-3.1983352077193556
77385;BMP280;66444;49.680;18.538;2023-03-01T04:26:45;98539.0334218563;;;-3.1983352077193556
77385;BMP280;66444;49.680;18.538;2023-03-01T04:31:47;98530.35282620326;;;-3.320804993715137
77385;BMP280;66444;49.680;18.538;2023-03-01T04:36:50;98532.37315745515;;;-3.3412169506773353
77385;BMP280;66444;49.680;18.538;2023-03-01T04:42:02;98522.18612611883;;;-3.356525979517028
77385;BMP280;66444;49.680;18.538;2023-03-01T04:47:05;98528.91201872006;;;-3.2799813591875138
77385;BMP280;66444;49.680;18.538;2023-03-01T04:52:07;98526.01146745424;;;-3.382041143998504
77385;BMP280;66444;49.680;18.538;2023-03-01T04:57:09;98518.36019169484;;;-3.3310109605547042
77385;BMP280;66444;49.680;18.538;2023-03-01T05:02:11;98525.88013239547;;;-3.2493638777639715
77385;BMP280;66444;49.680;18.538;2023-03-01T05:07:13;98527.03871285303;;;-3.2085408951621504
77385;BMP280;66444;49.680;18.538;2023-03-01T05:12:14;98521.54989007345;;;-3.126896047545597
77385;BMP280;66444;49.680;18.538;2023-03-01T05:17:16;98526.53624462492;;;-3.111587804509327
77385;BMP280;66444;49.680;18.538;2023-03-01T05:22:18;98529.35422200826;;;-3.126896047545597
77385;BMP280;66444;49.680;18.538;2023-03-01T05:27:19;98543.22493792714;;;-3.1881295435596257
77385;BMP280;66444;49.680;18.538;2023-03-01T05:32:21;98536.71440024013;;;-3.2799813591875138
77385;BMP280;66444;49.680;18.538;2023-03-01T05:37:23;98531.21217200987;;;-3.382041143998504
77385;BMP280;66444;49.680;18.538;2023-03-01T05:42:25;98542.89774964761;;;-3.473896941030398
77385;BMP280;66444;49.680;18.538;2023-03-01T05:47:26;98535.67924720327;;;-3.4534843787085263
77385;BMP280;66444;49.680;18.538;2023-03-01T05:52:28;98534.8839025431;;;-3.4585875105578454
77385;BMP280;66444;49.680;18.538;2023-03-01T05:57:29;98523.25983798684;;;-3.4330719095189126
77385;BMP280;66444;49.680;18.538;2023-03-01T06:02:31;98529.62168470923;;;-3.3922472505364567
77385;BMP280;66444;49.680;18.538;2023-03-01T06:07:33;98529.06049965172;;;-3.2289523398969324
77385;BMP280;66444;49.680;18.538;2023-03-01T06:12:36;98532.10113064483;;;-3.075868774484843
77385;BMP280;66444;49.680;18.538;2023-03-01T06:17:39;98539.182938976;;;-2.9636108226608484
77385;BMP280;66444;49.680;18.538;2023-03-01T06:22:43;98535.7728243058;;;-2.785024432791397
77385;BMP280;66444;49.680;18.538;2023-03-01T06:27:45;98526.69950845515;;;-2.57583230198361
77385;BMP280;66444;49.680;18.538;2023-03-01T06:32:47;98527.22584175935;;;-2.3717518479097635
77385;BMP280;66444;49.680;18.538;2023-03-01T06:37:50;98527.734833439;;;-2.1676807070616633
77385;BMP280;66444;49.680;18.538;2023-03-01T06:42:51;98518.24987678346;;;-1.994227559864521
77385;BMP280;66444;49.680;18.538;2023-03-01T06:47:57;98533.46377894815;;;-1.7289592911489309
77385;BMP280;66444;49.680;18.538;2023-03-01T06:53:04;98522.4651402088;;;-1.5147156412247569
77385;BMP280;66444;49.680;18.538;2023-03-01T06:58:06;98517.1161330675;;;-1.3310863993596285
77385;BMP280;66444;49.680;18.538;2023-03-01T07:03:08;98520.03964550576;;;-1.1780677936971187
77385;BMP280;66444;49.680;18.538;2023-03-01T07:08:09;98521.16581314219;;;-1.137263716943562
77385;BMP280;66444;49.680;18.538;2023-03-01T07:13:11;98522.16152058107;;;-1.0301547878887505
77385;BMP280;66444;49.680;18.538;2023-03-01T07:18:13;98513.17282534562;;;-0.9536499815993011
77385;BMP280;66444;49.680;18.538;2023-03-01T07:23:15;98527.5437087577;;;-0.8108445139601826
77385;BMP280;66444;49.680;18.538;2023-03-01T07:28:17;98524.98082255572;;;-0.6425439285580069
77385;BMP280;66444;49.680;18.538;2023-03-01T07:33:18;98518.67583978863;;;-0.5150477051269263
77385;BMP280;66444;49.680;18.538;2023-03-01T07:38:20;98518.05857127569;;;-0.41815300839953123
77385;BMP280;66444;49.680;18.538;2023-03-01T07:43:22;98521.71967826765;;;-0.26006617220118644
77385;BMP280;66444;49.680;18.538;2023-03-01T07:48:23;98521.41022254995;;;-0.12748152599669993
77385;BMP280;66444;49.680;18.538;2023-03-01T07:53:25;98525.84662373248;;;0.03569417535327375
77385;BMP280;66444;49.680;18.538;2023-03-01T07:58:27;98509.82765141394;;;0.1682700438424945
77385;BMP280;66444;49.680;18.538;2023-03-01T08:03:29;98509.34826225287;;;0.1988639162387699
77385;BMP280;66444;49.680;18.538;2023-03-01T08:08:32;98513.62010237912;;;0.26005103238858285
77385;BMP280;66444;49.680;18.538;2023-03-01T08:13:35;98508.52824360559;;;0.3620276966597885
77385;BMP280;66444;49.680;18.538;2023-03-01T08:18:36;98500.87895484423;;;0.5149883274920285
77385;BMP280;66444;49.680;18.538;2023-03-01T08:23:39;98487.73678331026;;;0.6832389707211405
77385;BMP280;66444;49.680;18.538;2023-03-01T08:28:42;98486.08539212993;;;0.8412868310697377
77385;BMP280;66444;49.680;18.538;2023-03-01T08:33:44;98482.10205319374;;;1.0350152869243174
77385;BMP280;66444;49.680;18.538;2023-03-01T08:38:47;98473.30695975335;;;1.1471700249239802
77385;BMP280;66444;49.680;18.538;2023-03-01T08:43:49;98469.74376259815;;;1.2593219456728548
77385;BMP280;66444;49.680;18.538;2023-03-01T08:48:51;98456.77315616746;;;1.4122518428601325
77385;BMP280;66444;49.680;18.538;2023-03-01T08:53:53;98455.85286664449;;;1.5753712923265994
77385;BMP280;66444;49.680;18.538;2023-03-01T08:58:55;98453.91247230422;;;1.7996508030220866
77385;BMP280;66444;49.680;18.538;2023-03-01T09:03:57;98438.29599512473;;;2.003531488403678
77385;BMP280;66444;49.680;18.538;2023-03-01T09:08:59;98444.66632276414;;;2.146242426801473
77385;BMP280;66444;49.680;18.538;2023-03-01T09:14:04;98448.33490967708;;;2.136048939684406
77385;BMP280;66444;49.680;18.538;2023-03-01T09:19:07;98453.07341772933;;;2.1666293311864138
77385;BMP280;66444;49.680;18.538;2023-03-01T09:24:11;98462.83012311997;;;2.263465855177492
77385;BMP280;66444;49.680;18.538;2023-03-01T09:29:15;98457.15208686086;;;2.497903474373743
77385;BMP280;66444;49.680;18.538;2023-03-01T09:34:17;98462.66009138402;;;2.482614439865574
77385;BMP280;66444;49.680;18.538;2023-03-01T09:39:19;98461.09962190893;;;2.5233850821387023
77385;BMP280;66444;49.680;18.538;2023-03-01T09:44:25;98460.89067029393;;;2.691560043767095
77385;BMP280;66444;49.680;18.538;2023-03-01T09:49:33;98456.49084559317;;;3.002412224095315
77385;BMP280;66444;49.680;18.538;2023-03-01T09:54:36;98457.03976623861;;;3.2775747692678125
77385;BMP280;66444;49.680;18.538;2023-03-01T09:59:43;98447.56544475075;;;3.522149449074641
77385;BMP280;66444;49.680;18.538;2023-03-01T10:04:59;98445.97679183996;;;3.6138614964671434
77385;BMP280;66444;49.680;18.538;2023-03-01T10:10:17;98441.23079693368;;;3.68519178503193
77385;BMP280;66444;49.680;18.538;2023-03-01T10:15:30;98437.49944633241;;;3.899175805505365
77385;BMP280;66444;49.680;18.538;2023-03-01T10:20:40;98430.3439943667;;;4.05710980584845
77385;BMP280;66444;49.680;18.538;2023-03-01T10:25:54;98439.26098173513;;;4.148810851993039
77385;BMP280;66444;49.680;18.538;2023-03-01T10:31:11;98432.08615968599;;;4.306736010592431
77385;BMP280;66444;49.680;18.538;2023-03-01T10:36:16;98421.38810271796;;;4.6123817171901464
77385;BMP280;66444;49.680;18.538;2023-03-01T10:41:18;98426.52699587581;;;4.816133880056441
77385;BMP280;66444;49.680;18.538;2023-03-01T10:46:22;98417.9581186604;;;4.999502863828093
77385;BMP280;66444;49.680;18.538;2023-03-01T10:51:26;98415.80245005804;;;5.361125138308853
77385;BMP280;66444;49.680;18.538;2023-03-01T10:56:28;98410.94309961793;;;5.193050829367712
77385;BMP280;66444;49.680;18.538;2023-03-01T11:01:46;98402.01258495945;;;5.152304587746039
77385;BMP280;66444;49.680;18.538;2023-03-01T11:07:04;98402.89148155398;;;5.345845917612314
77385;BMP280;66444;49.680;18.538;2023-03-01T11:12:12;98396.45039545074;;;5.457892319513485
77385;BMP280;66444;49.680;18.538;2023-03-01T11:17:18;98397.15569983762;;;5.274542195023969
77385;BMP280;66444;49.680;18.538;2023-03-01T11:22:24;98383.03173602585;;;5.422241497226059
77385;BMP280;66444;49.680;18.538;2023-03-01T11:27:27;98372.92928336338;;;5.732903361786157
77385;BMP280;66444;49.680;18.538;2023-03-01T11:32:34;98369.09999177835;;;5.844940031366423
77385;BMP280;66444;49.680;18.538;2023-03-01T11:37:49;98370.60867449889;;;5.906049754610285
77385;BMP280;66444;49.680;18.538;2023-03-01T11:43:04;98362.33986595107;;;5.972251008916646
77385;BMP280;66444;49.680;18.538;2023-03-01T11:48:22;98362.70752971145;;;6.094466124754399
77385;BMP280;66444;49.680;18.538;2023-03-01T11:53:48;98352.78848889729;;;6.201401600800454
77385;BMP280;66444;49.680;18.538;2023-03-01T11:59:08;98351.99581796209;;;6.38471358763054
77385;BMP280;66444;49.680;18.538;2023-03-01T12:04:27;98350.3496400618;;;6.425448560249061
77385;BMP280;66444;49.680;18.538;2023-03-01T12:09:48;98341.18833912525;;;6.863325988361612
77385;BMP280;66444;49.680;18.538;2023-03-01T12:15:08;98329.47814512165;;;7.199342259485275
77385;BMP280;66444;49.680;18.538;2023-03-01T12:20:27;98327.52001335594;;;7.392794671328739
77385;BMP280;66444;49.680;18.538;2023-03-01T12:25:39;98321.04717608147;;;7.4538831604179
77385;BMP280;66444;49.680;18.538;2023-03-01T12:30:52;98316.13901683928;;;7.525152004975825
77385;BMP280;66444;49.680;18.538;2023-03-01T12:36:13;98308.30130265804;;;7.474245803849771
77385;BMP280;66444;49.680;18.538;2023-03-01T12:41:29;98310.65259487211;;;7.489517725305632
77385;BMP280;66444;49.680;18.538;2023-03-01T12:46:47;98296.91007813778;;;7.606600716058165
77385;BMP280;66444;49.680;18.538;2023-03-01T12:51:59;98298.68900829979;;;7.5149708113167435
77385;BMP280;66444;49.680;18.538;2023-03-01T12:57:09;98295.1270065467;;;7.698228734871373
77385;BMP280;66444;49.680;18.538;2023-03-01T13:02:19;98291.17651212325;;;7.810215974505991
77385;BMP280;66444;49.680;18.538;2023-03-01T13:07:29;98288.0705241725;;;8.01382191972807
77385;BMP280;66444;49.680;18.538;2023-03-01T13:12:56;98284.58358134083;;;8.146160789905116
77385;BMP280;66444;49.680;18.538;2023-03-01T13:18:26;98280.8498244192;;;8.156340540014208
77385;BMP280;66444;49.680;18.538;2023-03-01T13:23:32;98277.11590368465;;;8.166520266840234
77385;BMP280;66444;49.680;18.538;2023-03-01T13:28:38;98275.36954455785;;;8.12071131276898
77385;BMP280;66444;49.680;18.538;2023-03-01T13:33:47;98270.60963068066;;;8.227598138852045
77385;BMP280;66444;49.680;18.538;2023-03-01T13:38:55;98262.28363006143;;;8.380289151798934
77385;BMP280;66444;49.680;18.538;2023-03-01T13:43:58;98256.72509774414;;;8.482080250047147
77385;BMP280;66444;49.680;18.538;2023-03-01T13:49:00;98247.49354948652;;;8.767082938551903
77385;BMP280;66444;49.680;18.538;2023-03-01T13:54:03;98254.79883736128;;;9.194552745204419
77385;BMP280;66444;49.680;18.538;2023-03-01T13:59:05;98267.03117842543;;;9.550746210152283
77385;BMP280;66444;49.680;18.538;2023-03-01T14:04:18;98265.41767596996;;;10.232522713392973
77385;BMP280;66444;49.680;18.538;2023-03-01T14:09:24;98253.22672453916;;;10.985408129822464
77385;BMP280;66444;49.680;18.538;2023-03-01T14:14:31;98254.28896388368;;;11.68730804300867
77385;BMP280;66444;49.680;18.538;2023-03-01T14:19:41;98249.70209046324;;;11.900907753221691
77385;BMP280;66444;49.680;18.538;2023-03-01T14:24:47;98256.48822933953;;;12.572154282499104
77385;BMP280;66444;49.680;18.538;2023-03-01T14:29:54;98253.96255661719;;;13.253467476041987
77385;BMP280;66444;49.680;18.538;2023-03-01T14:34:58;98251.35436726573;;;13.411069820774719
77385;BMP280;66444;49.680;18.538;2023-03-01T14:40:03;98259.50971935457;;;13.324643421173096
77385;BMP280;66444;49.680;18.538;2023-03-01T14:45:23;98260.9824490457;;;13.578833911987022
77385;BMP280;66444;49.680;18.538;2023-03-01T14:50:28;98254.46551697898;;;13.431405199738219
77385;BMP280;66444;49.680;18.538;2023-03-01T14:55:32;98248.5279162643;;;13.777092392882333
77385;BMP280;66444;49.680;18.538;2023-03-01T15:00:38;98240.37583669632;;;14.17866577487439
77385;BMP280;66444;49.680;18.538;2023-03-01T15:05:48;98248.05726782876;;;14.351483643660321
77385;BMP280;66444;49.680;18.538;2023-03-01T15:10:59;98244.86294745705;;;14.138001769036055
77385;BMP280;66444;49.680;18.538;2023-03-01T15:16:07;98246.49489912119;;;14.026173832127824
77385;BMP280;66444;49.680;18.538;2023-03-01T15:21:15;98245.44610420891;;;13.914343077968805
77385;BMP280;66444;49.680;18.538;2023-03-01T15:26:22;98241.03330120302;;;13.83300985088572
77385;BMP280;66444;49.680;18.538;2023-03-01T15:31:27;98234.13005558972;;;13.822843092726544
77385;BMP280;66444;49.680;18.538;2023-03-01T15:36:32;98229.96462852923;;;13.690673117898404
77385;BMP280;66444;49.680;18.538;2023-03-01T15:41:46;98226.56638676014;;;13.283971592225134
77385;BMP280;66444;49.680;18.538;2023-03-01T15:46:49;98231.09161225415;;;12.999258358776569
77385;BMP280;66444;49.680;18.538;2023-03-01T15:51:51;98225.45863044634;;;12.404352158401162
77385;BMP280;66444;49.680;18.538;2023-03-01T15:56:56;98228.37413392059;;;11.900907753221691
77385;BMP280;66444;49.680;18.538;2023-03-01T16:01:58;98231.24137274951;;;11.310940713714809
77385;BMP280;66444;49.680;18.538;2023-03-01T16:07:02;98230.27050756513;;;10.558110431581735
77385;BMP280;66444;49.680;18.538;2023-03-01T16:12:05;98237.95643263703;;;9.326856504520402
77385;BMP280;66444;49.680;18.538;2023-03-01T16:17:15;98240.86656585305;;;8.034182002022863
77385;BMP280;66444;49.680;18.538;2023-03-01T16:22:17;98243.8392605512;;;7.158614364918321
77385;BMP280;66444;49.680;18.538;2023-03-01T16:27:19;98241.2582418278;;;6.557834648480639
77385;BMP280;66444;49.680;18.538;2023-03-01T16:32:21;98252.07535480591;;;6.079189418628812
77385;BMP280;66444;49.680;18.538;2023-03-01T16:37:23;98251.786762253;;;5.52919310843572
77385;BMP280;66444;49.680;18.538;2023-03-01T16:42:26;98261.35478922092;;;5.009689808404073
77385;BMP280;66444;49.680;18.538;2023-03-01T16:47:28;98258.55369280891;;;4.632757352571934
77385;BMP280;66444;49.680;18.538;2023-03-01T16:52:31;98253.02473118041;;;4.306736010592431
77385;BMP280;66444;49.680;18.538;2023-03-01T16:57:34;98255.89618760205;;;3.9501228684093803
77385;BMP280;66444;49.680;18.538;2023-03-01T17:02:37;98258.17044057665;;;3.624051607539877
77385;BMP280;66444;49.680;18.538;2023-03-01T17:07:39;98258.78955084365;;;3.389673162251711
77385;BMP280;66444;49.680;18.538;2023-03-01T17:12:43;98264.65269270362;;;3.1043262569233776
77385;BMP280;66444;49.680;18.538;2023-03-01T17:17:51;98269.9474689486;;;2.849536809278652
77385;BMP280;66444;49.680;18.538;2023-03-01T17:22:53;98264.70645836482;;;2.6456947737839074
77385;BMP280;66444;49.680;18.538;2023-03-01T17:27:55;98266.8060278194;;;2.5233850821387023
77385;BMP280;66444;49.680;18.538;2023-03-01T17:32:57;98261.01887814506;;;2.3501072796992957
77385;BMP280;66444;49.680;18.538;2023-03-01T17:38:11;98260.98949413926;;;2.146242426801473
77385;BMP280;66444;49.680;18.538;2023-03-01T17:43:15;98270.91849875893;;;1.9729499793145806
77385;BMP280;66444;49.680;18.538;2023-03-01T17:48:18;98278.22466520549;;;1.850621847482398
77385;BMP280;66444;49.680;18.538;2023-03-01T17:53:20;98280.27735529385;;;1.7282903628889472
77385;BMP280;66444;49.680;18.538;2023-03-01T17:58:23;98274.20267296939;;;1.6212475635576993
77385;BMP280;66444;49.680;18.538;2023-03-01T18:03:25;98266.54779436477;;;1.5040072666015476
77385;BMP280;66444;49.680;18.538;2023-03-01T18:08:27;98278.27701655253;;;1.3765686687547714
77385;BMP280;66444;49.680;18.538;2023-03-01T18:13:30;98270.61220238532;;;1.2593219456728548
77385;BMP280;66444;49.680;18.538;2023-03-01T18:18:39;98272.91801586794;;;1.1726593452040106
77385;BMP280;66444;49.680;18.538;2023-03-01T18:23:47;98259.53596713908;;;1.1369742560666054
77385;BMP280;66444;49.680;18.538;2023-03-01T18:28:50;98259.7229227449;;;1.0197212407365441
77385;BMP280;66444;49.680;18.538;2023-03-01T18:33:53;98258.82712688777;;;0.861679695919156
77385;BMP280;66444;49.680;18.538;2023-03-01T18:38:56;98252.9754524028;;;0.7393211098387837
77385;BMP280;66444;49.680;18.538;2023-03-01T18:43:58;98247.95004699646;;;0.6730421424843371
77385;BMP280;66444;49.680;18.538;2023-03-01T18:49:01;98248.73934251418;;;0.6781405595131218
77385;BMP280;66444;49.680;18.538;2023-03-01T18:54:04;98256.88217938576;;;0.7138293157331645
77385;BMP280;66444;49.680;18.538;2023-03-01T18:59:11;98257.9611811189;;;0.7546161164529621
77385;BMP280;66444;49.680;18.538;2023-03-01T19:04:14;98246.738543515;;;0.8005008219741285
77385;BMP280;66444;49.680;18.538;2023-03-01T19:09:16;98255.7070947596;;;0.8922688185703009
77385;BMP280;66444;49.680;18.538;2023-03-01T19:14:18;98256.5319666353;;;0.948348332522437
77385;BMP280;66444;49.680;18.538;2023-03-01T19:19:21;98249.96775727595;;;0.9228577316738665
77385;BMP280;66444;49.680;18.538;2023-03-01T19:24:23;98243.15247811585;;;0.9126614505890757
77385;BMP280;66444;49.680;18.538;2023-03-01T19:29:25;98240.49880140329;;;0.861679695919156
77385;BMP280;66444;49.680;18.538;2023-03-01T19:34:27;98244.19289670314;;;0.9024651462212205
77385;BMP280;66444;49.680;18.538;2023-03-01T19:39:30;98242.07693695136;;;0.8718760934192687
77385;BMP280;66444;49.680;18.538;2023-03-01T19:44:32;98234.68813742683;;;0.7903042614925653
77385;BMP280;66444;49.680;18.538;2023-03-01T19:49:34;98230.95556516723;;;0.6985341694206
77385;BMP280;66444;49.680;18.538;2023-03-01T19:54:37;98239.26795377792;;;0.6169591709971428
77385;BMP280;66444;49.680;18.538;2023-03-01T19:59:39;98240.76273271655;;;0.5251855166163295
77385;BMP280;66444;49.680;18.538;2023-03-01T20:04:41;98245.41131455668;;;0.4538047038018703
77385;BMP280;66444;49.680;18.538;2023-03-01T20:09:44;98238.59934046426;;;0.4436073516961187
77385;BMP280;66444;49.680;18.538;2023-03-01T20:14:47;98243.29101712402;;;0.42321257763542236
77385;BMP280;66444;49.680;18.538;2023-03-01T20:19:54;98241.17053659461;;;0.39262024192139505
77385;BMP280;66444;49.680;18.538;2023-03-01T20:24:57;98243.74019886457;;;0.34163255007006227
77385;BMP280;66444;49.680;18.538;2023-03-01T20:29:59;98237.42390445784;;;0.30084197749383745
77385;BMP280;66444;49.680;18.538;2023-03-01T20:35:01;98244.9265554109;;;0.21416077385656535
77385;BMP280;66444;49.680;18.538;2023-03-01T20:40:05;98236.78355892355;;;0.178468024590984
77385;BMP280;66444;49.680;18.538;2023-03-01T20:45:09;98240.68126569361;;;0.15297302906401455
77385;BMP280;66444;49.680;18.538;2023-03-01T20:50:12;98234.60991652237;;;0.09688352667726577
77385;BMP280;66444;49.680;18.538;2023-03-01T20:55:15;98240.87552337334;;;0.08668535966426134
77385;BMP280;66444;49.680;18.538;2023-03-01T21:00:19;98239.78727975536;;;0.0458924587816
77385;BMP280;66444;49.680;18.538;2023-03-01T21:05:22;98242.3480805493;;;-0.005099191190674901
77385;BMP280;66444;49.680;18.538;2023-03-01T21:10:26;98242.83803892326;;;-0.03569446057081223
77385;BMP280;66444;49.680;18.538;2023-03-01T21:15:29;98246.9763458662;;;-0.0764884790405631
77385;BMP280;66444;49.680;18.538;2023-03-01T21:20:32;98233.35981677395;;;-0.09688562797382475
77385;BMP280;66444;49.680;18.538;2023-03-01T21:25:36;98233.84895895538;;;-0.12748152599669993
77385;BMP280;66444;49.680;18.538;2023-03-01T21:30:39;98233.24604867995;;;-0.19887276962399483
77385;BMP280;66444;49.680;18.538;2023-03-01T21:35:43;98241.57467535751;;;-0.22946936613880098
77385;BMP280;66444;49.680;18.538;2023-03-01T21:40:46;98230.57398657691;;;-0.24986721356399358
77385;BMP280;66444;49.680;18.538;2023-03-01T21:45:49;98225.8343552756;;;-0.2804641593247652
77385;BMP280;66444;49.680;18.538;2023-03-01T21:50:53;98229.42102015945;;;-0.3416586794890463
77385;BMP280;66444;49.680;18.538;2023-03-01T21:55:57;98224.13390205879;;;-0.39265475324355065
77385;BMP280;66444;49.680;18.538;2023-03-01T22:01:05;98223.16151346089;;;-0.33145953458733857